createdAt,value
2022-12-19T00:01:47.544Z,4.80
2022-12-19T00:04:21.064Z,4.90
2022-12-19T00:06:52.670Z,4.90
2022-12-19T00:09:25.953Z,5.00
2022-12-19T00:11:57.611Z,5.00
2022-12-19T00:14:29.220Z,5.10
2022-12-19T00:17:00.851Z,5.10
2022-12-19T00:19:32.493Z,5.10
2022-12-19T00:22:09.638Z,5.20
2022-12-19T00:24:44.153Z,5.20
2022-12-19T00:27:15.754Z,5.30
2022-12-19T00:29:47.552Z,5.30
2022-12-19T00:32:19.170Z,5.30
2022-12-19T00:34:50.770Z,5.30
2022-12-19T00:37:22.377Z,5.30
2022-12-19T00:39:55.321Z,5.30
2022-12-19T00:42:27.865Z,5.30
2022-12-19T00:45:00.374Z,5.30
2022-12-19T00:47:31.985Z,5.40
2022-12-19T00:50:03.761Z,5.40
2022-12-19T00:52:35.375Z,5.40
2022-12-19T00:55:14.132Z,5.40
2022-12-19T00:57:50.796Z,5.40
2022-12-19T01:00:24.853Z,5.40
2022-12-19T01:02:56.535Z,5.40
2022-12-19T01:05:28.243Z,5.30
2022-12-19T01:08:00.003Z,5.20
2022-12-19T01:10:32.959Z,5.00
2022-12-19T01:13:04.587Z,4.70
2022-12-19T01:15:39.084Z,4.40
2022-12-19T01:18:10.854Z,4.10
2022-12-19T01:20:43.539Z,3.70
2022-12-19T01:23:15.863Z,3.40
2022-12-19T01:25:52.295Z,3.20
2022-12-19T01:28:24.542Z,2.90
2022-12-19T01:30:56.117Z,2.70
2022-12-19T01:33:27.745Z,2.50
2022-12-19T01:36:01.730Z,2.30
2022-12-19T01:38:33.762Z,2.20
2022-12-19T01:41:06.786Z,2.00
2022-12-19T01:43:58.462Z,1.90
2022-12-19T01:46:32.558Z,1.80
2022-12-19T01:49:04.602Z,1.70
2022-12-19T01:51:39.202Z,1.60
2022-12-19T01:54:15.744Z,1.50
2022-12-19T01:56:51.738Z,1.40
2022-12-19T01:59:28.030Z,1.40
2022-12-19T02:02:06.451Z,1.30
2022-12-19T02:04:40.641Z,1.30
2022-12-19T02:07:15.853Z,1.20
2022-12-19T02:09:56.923Z,1.20
2022-12-19T02:12:33.474Z,1.20
2022-12-19T02:15:06.081Z,1.10
2022-12-19T02:17:41.096Z,1.10
2022-12-19T02:20:20.683Z,1.00
2022-12-19T02:23:02.497Z,1.00
2022-12-19T02:25:42.872Z,1.00
2022-12-19T02:28:31.934Z,1.00
2022-12-19T02:31:17.451Z,1.00
2022-12-19T02:33:55.384Z,1.00
2022-12-19T02:36:36.358Z,0.90
2022-12-19T02:39:11.960Z,0.90
2022-12-19T02:41:46.040Z,0.90
2022-12-19T02:44:20.723Z,0.90
2022-12-19T02:46:55.638Z,0.90
2022-12-19T02:49:31.142Z,0.90
2022-12-19T02:52:09.325Z,0.90
2022-12-19T02:54:44.837Z,0.90
2022-12-19T02:57:20.245Z,1.00
2022-12-19T02:59:55.829Z,1.00
2022-12-19T03:02:34.058Z,1.00
2022-12-19T03:05:08.627Z,1.00
2022-12-19T03:07:42.717Z,1.00
2022-12-19T03:10:18.586Z,1.00
2022-12-19T03:12:52.536Z,1.00
2022-12-19T03:15:24.446Z,1.00
2022-12-19T03:17:57.934Z,1.00
2022-12-19T03:20:35.520Z,1.00
2022-12-19T03:23:07.414Z,1.00
2022-12-19T03:25:40.734Z,1.00
2022-12-19T03:28:16.010Z,1.00
2022-12-19T03:30:48.478Z,1.00
2022-12-19T03:33:22.373Z,1.00
2022-12-19T03:35:54.420Z,1.00
2022-12-19T03:38:26.544Z,1.00
2022-12-19T03:40:59.712Z,1.10
2022-12-19T03:43:32.131Z,1.10
2022-12-19T03:46:06.052Z,1.10
2022-12-19T03:48:41.826Z,1.10
2022-12-19T03:51:22.377Z,1.10
2022-12-19T03:53:58.464Z,1.20
2022-12-19T03:56:41.642Z,1.20
2022-12-19T03:59:18.908Z,1.20
2022-12-19T04:01:53.590Z,1.20
2022-12-19T04:04:28.187Z,1.20
2022-12-19T04:07:02.735Z,1.20
2022-12-19T04:09:36.935Z,1.20
2022-12-19T04:12:13.552Z,1.20
2022-12-19T04:14:45.763Z,1.20
2022-12-19T04:17:26.452Z,1.20
2022-12-19T04:20:05.349Z,1.30
2022-12-19T04:22:41.846Z,1.30
2022-12-19T04:25:18.360Z,1.30
2022-12-19T04:27:53.607Z,1.30
2022-12-19T04:30:26.663Z,1.30
2022-12-19T04:32:59.525Z,1.30
2022-12-19T04:35:32.777Z,1.30
2022-12-19T04:38:04.706Z,1.30
2022-12-19T04:40:41.509Z,1.30
2022-12-19T04:43:13.668Z,1.40
2022-12-19T04:45:46.132Z,1.40
2022-12-19T04:48:18.527Z,1.40
2022-12-19T04:50:51.704Z,1.40
2022-12-19T04:53:24.771Z,1.40
2022-12-19T04:56:01.213Z,1.40
2022-12-19T04:58:33.592Z,1.40
2022-12-19T05:01:07.647Z,1.40
2022-12-19T05:03:39.785Z,1.50
2022-12-19T05:06:14.070Z,1.50
2022-12-19T05:08:46.410Z,1.50
2022-12-19T05:11:20.009Z,1.50
2022-12-19T05:13:52.003Z,1.50
2022-12-19T05:16:23.790Z,1.60
2022-12-19T05:18:57.153Z,1.60
2022-12-19T05:21:30.116Z,1.60
2022-12-19T05:24:01.878Z,1.60
2022-12-19T05:26:33.648Z,1.60
2022-12-19T05:29:05.409Z,1.60
2022-12-19T05:31:37.304Z,1.60
2022-12-19T05:34:09.121Z,1.60
2022-12-19T05:36:42.242Z,1.70
2022-12-19T05:39:14.156Z,1.70
2022-12-19T05:41:49.006Z,1.70
2022-12-19T05:44:21.295Z,1.70
2022-12-19T05:46:53.097Z,1.70
2022-12-19T05:49:24.911Z,1.70
2022-12-19T05:51:58.293Z,1.80
2022-12-19T05:54:31.107Z,1.80
2022-12-19T05:57:02.982Z,1.80
2022-12-19T05:59:34.761Z,1.80
2022-12-19T06:02:06.641Z,1.80
2022-12-19T06:04:38.452Z,1.90
2022-12-19T06:07:13.454Z,1.90
2022-12-19T06:09:47.066Z,1.90
2022-12-19T06:12:18.860Z,1.90
2022-12-19T06:14:50.929Z,1.90
2022-12-19T06:17:22.884Z,1.90
2022-12-19T06:19:54.622Z,1.90
2022-12-19T06:22:27.719Z,2.00
2022-12-19T06:24:59.547Z,2.00
2022-12-19T06:27:31.352Z,2.00
2022-12-19T06:30:03.597Z,2.00
2022-12-19T06:32:38.097Z,2.10
2022-12-19T06:35:10.219Z,2.10
2022-12-19T06:37:43.334Z,2.00
2022-12-19T06:40:35.160Z,2.10
2022-12-19T06:43:06.949Z,2.10
2022-12-19T06:45:38.730Z,2.10
2022-12-19T06:48:10.521Z,2.10
2022-12-19T06:50:42.251Z,2.20
2022-12-19T06:53:15.386Z,2.20
2022-12-19T06:55:47.451Z,2.20
2022-12-19T06:58:24.061Z,2.20
2022-12-19T07:00:56.794Z,2.20
2022-12-19T07:03:31.246Z,2.20
2022-12-19T07:06:03.404Z,2.20
2022-12-19T07:08:36.603Z,2.30
2022-12-19T07:11:08.221Z,2.30
2022-12-19T07:13:39.837Z,2.30
2022-12-19T07:16:13.454Z,2.30
2022-12-19T07:18:45.111Z,2.40
2022-12-19T07:21:16.910Z,2.40
2022-12-19T07:23:51.948Z,2.40
2022-12-19T07:26:23.574Z,2.40
2022-12-19T07:28:55.215Z,2.40
2022-12-19T07:31:26.852Z,2.40
2022-12-19T07:33:58.488Z,2.40
2022-12-19T07:36:30.517Z,2.40
2022-12-19T07:39:03.632Z,2.40
2022-12-19T07:41:36.085Z,2.40
2022-12-19T07:44:07.948Z,2.40
2022-12-19T07:46:39.715Z,2.40
2022-12-19T07:49:11.386Z,2.40
2022-12-19T07:51:42.979Z,2.40
2022-12-19T07:54:15.927Z,2.40
2022-12-19T07:56:47.572Z,2.40
2022-12-19T07:59:19.193Z,2.40
2022-12-19T08:01:50.940Z,2.40
2022-12-19T08:04:22.936Z,2.50
2022-12-19T08:06:54.669Z,2.50
2022-12-19T08:09:27.789Z,2.50
2022-12-19T08:11:59.427Z,2.60
2022-12-19T08:14:31.041Z,2.60
2022-12-19T08:19:54.283Z,2.60
2022-12-19T08:22:25.925Z,2.60
2022-12-19T08:24:58.960Z,2.70
2022-12-19T08:27:30.613Z,2.70
2022-12-19T08:30:02.650Z,2.80
2022-12-19T08:32:34.473Z,2.80
2022-12-19T08:35:07.442Z,2.80
2022-12-19T08:37:40.383Z,2.90
2022-12-19T08:40:13.589Z,2.90
2022-12-19T08:42:45.506Z,2.90
2022-12-19T08:45:18.156Z,2.90
2022-12-19T08:47:49.785Z,3.00
2022-12-19T08:50:21.386Z,3.00
2022-12-19T08:52:52.993Z,3.00
2022-12-19T08:55:25.931Z,3.10
2022-12-19T08:58:01.464Z,3.10
2022-12-19T09:00:33.844Z,3.10
2022-12-19T09:03:05.556Z,3.20
2022-12-19T09:06:01.494Z,3.20
2022-12-19T09:08:30.521Z,3.20
2022-12-19T09:11:04.945Z,3.20
2022-12-19T09:13:37.422Z,3.20
2022-12-19T09:16:10.910Z,3.30
2022-12-19T09:18:48.442Z,3.30
2022-12-19T09:21:23.056Z,3.30
2022-12-19T09:24:00.536Z,3.30
2022-12-19T09:26:39.260Z,3.30
2022-12-19T09:29:19.849Z,3.30
2022-12-19T09:31:56.173Z,3.40
2022-12-19T09:34:37.058Z,3.40
2022-12-19T09:37:16.665Z,3.40
2022-12-19T09:39:49.695Z,3.40
2022-12-19T09:42:44.732Z,3.50
2022-12-19T09:45:37.338Z,3.40
2022-12-19T09:48:23.514Z,3.50
2022-12-19T09:51:10.512Z,3.50
2022-12-19T09:53:54.308Z,3.50
2022-12-19T09:56:28.510Z,3.60
2022-12-19T09:59:05.766Z,3.60
2022-12-19T10:01:50.780Z,3.70
2022-12-19T10:04:26.718Z,3.80
2022-12-19T10:07:21.261Z,3.80
2022-12-19T10:12:40.720Z,3.80
2022-12-19T10:13:13.202Z,3.80
2022-12-19T10:15:58.995Z,3.90
2022-12-19T10:18:48.445Z,4.00
2022-12-19T10:21:59.489Z,4.00
2022-12-19T10:24:40.367Z,4.00
2022-12-19T10:27:15.802Z,4.10
2022-12-19T10:29:51.971Z,4.10
2022-12-19T10:32:29.419Z,4.20
2022-12-19T10:35:01.391Z,4.30
2022-12-19T10:37:45.557Z,4.30
2022-12-19T10:40:27.204Z,4.40
2022-12-19T10:43:06.490Z,4.50
2022-12-19T10:45:46.904Z,4.60
2022-12-19T10:48:22.401Z,4.70
2022-12-19T10:51:06.752Z,4.80
2022-12-19T10:53:38.808Z,4.80
2022-12-19T10:56:20.497Z,4.90
2022-12-19T10:58:58.623Z,5.00
2022-12-19T11:01:34.806Z,5.00
2022-12-19T11:04:29.505Z,5.10
2022-12-19T11:07:19.049Z,5.20
2022-12-19T11:10:06.479Z,5.30
2022-12-19T11:17:46.797Z,5.30
2022-12-19T11:19:28.386Z,5.40
2022-12-19T11:29:15.212Z,5.50
2022-12-19T11:29:31.733Z,5.50
2022-12-19T11:30:38.169Z,5.60
2022-12-19T11:30:46.257Z,5.70
2022-12-19T11:33:24.010Z,5.80
2022-12-19T11:35:58.965Z,5.90
2022-12-19T11:38:39.865Z,6.00
2022-12-19T11:41:13.283Z,6.00
2022-12-19T11:43:49.948Z,6.10
2022-12-19T11:46:25.911Z,6.20
2022-12-19T11:49:05.239Z,6.20
2022-12-19T11:51:43.420Z,6.30
2022-12-19T11:54:20.697Z,6.40
2022-12-19T11:56:52.818Z,6.50
2022-12-19T11:59:30.638Z,6.50
2022-12-19T12:02:41.973Z,6.50
2022-12-19T12:05:32.894Z,6.60
2022-12-19T12:10:40.102Z,6.60
2022-12-19T12:18:11.883Z,6.70
2022-12-19T12:23:27.172Z,6.80
2022-12-19T12:31:10.766Z,6.80
2022-12-19T12:31:23.723Z,6.90
2022-12-19T12:31:44.727Z,6.90
2022-12-19T12:31:48.869Z,6.90
2022-12-19T12:32:03.000Z,6.90
2022-12-19T12:35:28.855Z,6.80
2022-12-19T12:39:04.883Z,6.80
2022-12-19T12:42:03.730Z,6.70
2022-12-19T12:44:45.207Z,6.70
2022-12-19T12:47:20.525Z,6.70
2022-12-19T12:49:56.367Z,6.70
2022-12-19T12:52:33.769Z,6.70
2022-12-19T12:55:15.506Z,6.70
2022-12-19T12:57:47.456Z,6.70
2022-12-19T13:00:26.187Z,6.80
2022-12-19T13:03:05.111Z,6.90
2022-12-19T13:05:53.013Z,7.00
2022-12-19T13:08:34.396Z,7.10
2022-12-19T13:11:11.677Z,7.10
2022-12-19T13:13:55.032Z,7.10
2022-12-19T13:16:53.015Z,7.10
2022-12-19T13:19:28.767Z,7.10
2022-12-19T13:22:34.212Z,7.20
2022-12-19T13:25:44.843Z,7.20
2022-12-19T13:28:38.979Z,7.20
2022-12-19T13:31:22.932Z,7.20
2022-12-19T13:34:18.263Z,7.20
2022-12-19T13:39:51.497Z,7.20
2022-12-19T13:40:20.605Z,7.10
2022-12-19T13:43:20.665Z,7.10
2022-12-19T13:45:55.510Z,7.10
2022-12-19T13:48:31.668Z,7.00
2022-12-19T13:51:05.799Z,7.00
2022-12-19T13:53:38.044Z,6.90
2022-12-19T13:56:12.460Z,6.90
2022-12-19T13:58:47.095Z,6.90
2022-12-19T14:01:22.111Z,6.80
2022-12-19T14:03:55.698Z,6.80
2022-12-19T14:06:29.900Z,6.80
2022-12-19T14:11:24.045Z,6.70
2022-12-19T14:13:50.169Z,6.70
2022-12-19T14:15:13.477Z,6.60
2022-12-19T14:17:48.127Z,6.60
2022-12-19T14:22:02.467Z,6.60
2022-12-19T14:23:14.218Z,6.60
2022-12-19T14:28:16.787Z,6.60
2022-12-19T14:28:41.871Z,6.60
2022-12-19T14:31:15.048Z,6.50
2022-12-19T14:34:11.090Z,6.50
2022-12-19T14:36:39.910Z,6.50
2022-12-19T14:39:24.456Z,6.50
2022-12-19T14:42:49.252Z,6.50
2022-12-19T14:52:11.612Z,6.50
2022-12-19T14:54:03.654Z,6.40
2022-12-19T14:54:24.403Z,6.40
2022-12-19T14:56:04.139Z,6.30
2022-12-19T14:57:25.492Z,6.30
2022-12-19T15:00:50.720Z,6.20
2022-12-19T15:03:25.179Z,6.20
2022-12-19T15:06:03.261Z,6.10
2022-12-19T15:11:00.975Z,6.10
2022-12-19T15:14:47.322Z,6.10
2022-12-19T15:15:17.329Z,6.00
2022-12-19T15:17:50.109Z,6.00
2022-12-19T15:20:21.923Z,5.90
2022-12-19T15:22:53.508Z,5.90
2022-12-19T15:26:01.154Z,5.80
2022-12-19T15:28:19.475Z,5.80
2022-12-19T15:30:52.777Z,5.80
2022-12-19T15:33:24.447Z,5.70
2022-12-19T15:35:56.098Z,5.70
2022-12-19T15:38:27.741Z,5.70
2022-12-19T15:40:59.346Z,5.60
2022-12-19T15:44:02.691Z,5.60
2022-12-19T15:46:25.210Z,5.50
2022-12-19T15:48:56.879Z,5.50
2022-12-19T15:51:28.511Z,5.50
2022-12-19T15:54:38.412Z,5.50
2022-12-19T15:56:53.839Z,5.50
2022-12-19T15:59:36.408Z,5.40
2022-12-19T16:02:15.778Z,5.40
2022-12-19T16:04:48.405Z,5.40
2022-12-19T16:07:21.017Z,5.30
2022-12-19T16:09:52.731Z,5.30
2022-12-19T16:12:25.776Z,5.30
2022-12-19T16:14:59.595Z,5.30
2022-12-19T16:17:32.538Z,5.20
2022-12-19T16:20:06.439Z,5.20
2022-12-19T16:22:38.764Z,5.20
2022-12-19T16:25:11.465Z,5.10
2022-12-19T16:27:43.453Z,5.20
2022-12-19T16:30:19.137Z,5.20
2022-12-19T16:32:51.092Z,5.10
2022-12-19T16:36:01.862Z,5.10
2022-12-19T16:38:15.604Z,5.10
2022-12-19T16:40:47.934Z,5.10
2022-12-19T16:43:23.125Z,5.10
2022-12-19T16:46:00.786Z,5.20
2022-12-19T16:48:35.787Z,5.40
2022-12-19T16:51:12.205Z,5.70
2022-12-19T16:53:43.866Z,6.10
2022-12-19T16:56:20.763Z,6.40
2022-12-19T16:58:52.645Z,6.70
2022-12-19T17:01:25.738Z,7.00
2022-12-19T17:03:57.530Z,7.20
2022-12-19T17:06:29.290Z,7.50
2022-12-19T17:09:01.041Z,7.70
2022-12-19T17:11:33.259Z,7.90
2022-12-19T17:14:08.184Z,8.10
2022-12-19T17:16:41.216Z,8.30
2022-12-19T17:19:17.904Z,8.40
2022-12-19T17:21:50.044Z,8.50
2022-12-19T17:24:21.722Z,8.70
2022-12-19T17:26:53.345Z,8.80
2022-12-19T17:29:25.121Z,8.90
2022-12-19T17:31:58.591Z,9.00
2022-12-19T17:34:32.188Z,9.00
2022-12-19T17:37:05.405Z,9.00
2022-12-19T17:39:38.250Z,9.10
2022-12-19T17:42:16.417Z,9.20
2022-12-19T17:44:48.355Z,9.20
2022-12-19T17:47:21.503Z,9.30
2022-12-19T17:49:53.287Z,9.30
2022-12-19T17:52:24.885Z,9.40
2022-12-19T17:54:56.490Z,9.40
2022-12-19T17:57:28.125Z,9.40
2022-12-19T17:59:59.737Z,9.40
2022-12-19T18:02:34.784Z,9.50
2022-12-19T18:05:07.401Z,9.50
2022-12-19T18:07:38.979Z,9.60
2022-12-19T18:10:14.396Z,9.60
2022-12-19T18:12:46.073Z,9.60
2022-12-19T18:15:18.337Z,9.60
2022-12-19T18:17:52.576Z,9.60
2022-12-19T18:20:31.229Z,9.70
2022-12-19T18:23:09.804Z,9.70
2022-12-19T18:25:41.425Z,9.70
2022-12-19T18:28:13.268Z,9.70
2022-12-19T18:30:45.803Z,9.70
2022-12-19T18:33:20.538Z,9.70
2022-12-19T18:35:52.195Z,9.70
2022-12-19T18:38:24.004Z,9.70
2022-12-19T18:40:55.628Z,9.80
2022-12-19T18:43:27.327Z,9.80
2022-12-19T18:45:58.996Z,9.80
2022-12-19T18:48:32.908Z,9.80
2022-12-19T18:51:05.160Z,9.80
2022-12-19T18:53:37.001Z,9.80
2022-12-19T18:56:08.644Z,9.80
2022-12-19T18:58:40.626Z,9.80
2022-12-19T19:01:13.715Z,9.80
2022-12-19T19:03:48.735Z,9.90
2022-12-19T19:06:21.715Z,9.80
2022-12-19T19:08:53.908Z,9.80
2022-12-19T19:11:25.843Z,9.70
2022-12-19T19:13:57.522Z,9.70
2022-12-19T19:16:29.683Z,9.60
2022-12-19T19:19:04.276Z,9.50
2022-12-19T19:21:36.177Z,9.60
2022-12-19T19:24:09.111Z,9.60
2022-12-19T19:26:40.860Z,9.60
2022-12-19T19:29:15.662Z,9.70
2022-12-19T19:31:48.338Z,9.70
2022-12-19T19:34:23.095Z,9.70
2022-12-19T19:36:56.021Z,9.70
2022-12-19T19:39:28.167Z,9.80
2022-12-19T19:42:01.010Z,9.70
2022-12-19T19:44:32.876Z,9.70
2022-12-19T19:47:04.599Z,9.60
2022-12-19T19:49:37.978Z,9.30
2022-12-19T19:52:09.610Z,9.00
2022-12-19T19:54:41.263Z,8.70
2022-12-19T19:57:12.857Z,8.50
2022-12-19T19:59:44.879Z,8.20
2022-12-19T20:02:16.809Z,7.90
2022-12-19T20:04:50.086Z,7.60
2022-12-19T20:07:21.727Z,7.60
2022-12-19T20:09:53.377Z,7.60
2022-12-19T20:12:24.973Z,7.80
2022-12-19T20:14:56.694Z,7.90
2022-12-19T20:17:28.339Z,8.10
2022-12-19T20:20:01.317Z,8.30
2022-12-19T20:22:32.945Z,8.40
2022-12-19T20:25:04.953Z,8.60
2022-12-19T20:27:36.646Z,8.70
2022-12-19T20:30:09.009Z,8.90
2022-12-19T20:32:40.698Z,9.00
2022-12-19T20:35:15.136Z,9.10
2022-12-19T20:37:46.959Z,9.20
2022-12-19T20:40:18.927Z,9.30
2022-12-19T20:42:50.688Z,9.40
2022-12-19T20:45:22.586Z,9.40
2022-12-19T20:47:55.287Z,9.50
2022-12-19T20:50:28.725Z,9.60
2022-12-19T20:53:00.648Z,9.60
2022-12-19T20:55:32.412Z,9.70
2022-12-19T20:58:04.332Z,9.70
2022-12-19T21:00:37.392Z,9.80
2022-12-19T21:06:03.380Z,9.90
2022-12-19T21:08:35.489Z,9.90
2022-12-19T21:11:08.678Z,10.00
2022-12-19T21:13:41.477Z,10.00
2022-12-19T21:16:16.499Z,10.00
2022-12-19T21:18:49.038Z,10.00
2022-12-19T21:21:24.281Z,10.10
2022-12-19T21:23:56.129Z,10.10
2022-12-19T21:26:27.929Z,10.10
2022-12-19T21:28:59.993Z,10.10
2022-12-19T21:31:32.027Z,10.10
2022-12-19T21:34:03.909Z,10.20
2022-12-19T21:36:38.494Z,10.20
2022-12-19T21:39:10.966Z,10.20
2022-12-19T21:41:42.731Z,10.20
2022-12-19T21:44:14.482Z,10.20
2022-12-19T21:46:46.335Z,10.20
2022-12-19T21:49:18.176Z,10.20
2022-12-19T21:51:51.336Z,10.20
2022-12-19T21:54:23.104Z,10.10
2022-12-19T21:56:54.890Z,10.10
2022-12-19T21:59:28.413Z,10.10
2022-12-19T22:02:00.358Z,10.10
2022-12-19T22:04:32.321Z,10.10
2022-12-19T22:07:05.830Z,10.00
2022-12-19T22:09:37.611Z,10.00
2022-12-19T22:12:11.917Z,10.00
2022-12-19T22:14:43.761Z,9.90
2022-12-19T22:17:15.535Z,9.70
2022-12-19T22:19:47.342Z,9.40
2022-12-19T22:22:20.433Z,9.10
2022-12-19T22:24:52.192Z,8.80
2022-12-19T22:27:24.991Z,8.50
2022-12-19T22:29:57.032Z,8.20
2022-12-19T22:32:29.437Z,8.00
2022-12-19T22:35:01.078Z,7.80
2022-12-19T22:37:34.176Z,7.60
2022-12-19T22:40:06.504Z,7.40
2022-12-19T22:42:38.092Z,7.20
2022-12-19T22:45:10.298Z,7.10
2022-12-19T22:47:42.224Z,6.90
2022-12-19T22:50:13.835Z,6.80
2022-12-19T22:52:46.801Z,6.70
2022-12-19T22:55:18.464Z,6.60
2022-12-19T22:57:50.057Z,6.50
2022-12-19T23:00:21.951Z,6.40
2022-12-19T23:02:53.797Z,6.30
2022-12-19T23:05:25.574Z,6.20
2022-12-19T23:07:58.516Z,6.20
2022-12-19T23:10:30.160Z,6.10
2022-12-19T23:13:01.747Z,6.10
2022-12-19T23:15:34.490Z,6.00
2022-12-19T23:18:06.064Z,6.00
2022-12-19T23:20:37.834Z,5.90
2022-12-19T23:23:10.816Z,5.90
2022-12-19T23:25:42.431Z,5.90
2022-12-19T23:28:14.028Z,5.90
2022-12-19T23:30:45.643Z,5.90
2022-12-19T23:33:17.263Z,5.90
2022-12-19T23:35:48.880Z,5.80
2022-12-19T23:38:21.822Z,5.80
2022-12-19T23:40:58.282Z,5.80
2022-12-19T23:43:31.126Z,5.70
2022-12-19T23:46:05.108Z,5.70
2022-12-19T23:48:36.925Z,5.70
2022-12-19T23:51:10.472Z,5.70
2022-12-19T23:53:43.771Z,5.70
2022-12-19T23:56:16.202Z,5.60
2022-12-19T23:58:47.842Z,5.60
